La Quinta, California
Current Conditions -  °F | °C
As of 11:52 AM on Thursday 30 Oct 2014 (Local Time) from KTRM Reporting Station
Clear Clear  
Wind Chill: 84°   Ceiling: Unl
Heat Index: 84°   Visibility: 10mi
Dew Point: 37°   Wind: 0mph
Humidity: 19%   Direction: NA
Pressure: 29.93"   Gusts: NA
Location:  33.68°N, 116.29°W
Report Text: KTRM 301852Z AUTO 00000KT 10SM CLR 29/03 A2993 RMK AO2 SLP135 T02890028 TSNO
Loading
Personal Weather Stations






























Interactive Weather Map
Tropical Storm Tracking
New forecast layout! Learn more

10-Day Weather Forecast

Advertisements
Track Severe Weather on mobile